Time;durP1;ratioP1;P1;durP2;ratioP2;P2;SDS_P1;SDS_P2;PMS_P1;PMS_P2;Temp;Humidity;BMP_temperature;BMP_pressure;BME280_temperature;BME280_humidity;BME280_pressure;Samples;Min_cycle;Max_cycle;Signal;HPM_P1;HPM_P2
2022/12/22 03:25:54;;;;;;;15.63;14.02;;;11.10;99.90;;;;;;5055516;28;20079;-73
2022/12/22 03:28:25;;;;;;;16.95;14.70;;;11.10;99.90;;;;;;5055386;28;20116;-73
2022/12/22 03:31:02;;;;;;;16.60;14.27;;;11.10;99.90;;;;;;5053674;28;20477;-73
2022/12/22 03:33:29;;;;;;;16.33;14.50;;;11.10;99.90;;;;;;5054800;28;20112;-73
2022/12/22 03:35:55;;;;;;;17.15;14.80;;;11.20;99.90;;;;;;5053758;28;20043;-73
2022/12/22 03:38:21;;;;;;;16.33;14.63;;;11.20;99.90;;;;;;5053594;28;20045;-73
2022/12/22 03:40:47;;;;;;;16.42;14.73;;;11.20;99.90;;;;;;5054925;28;20044;-73
2022/12/22 03:49:08;;;;;;;16.45;14.75;;;11.20;99.90;;;;;;5054624;28;20071;-73
2022/12/22 03:51:29;;;;;;;16.65;14.88;;;11.20;99.90;;;;;;5053343;28;20124;-74
2022/12/22 03:53:55;;;;;;;16.05;14.45;;;11.30;99.90;;;;;;5053476;28;20064;-73
2022/12/22 03:56:20;;;;;;;15.27;13.77;;;11.20;99.90;;;;;;5053797;28;20419;-73
2022/12/22 03:58:46;;;;;;;15.85;14.25;;;11.30;99.90;;;;;;5037485;28;20466;-73
2022/12/22 04:01:12;;;;;;;17.25;15.40;;;11.30;99.90;;;;;;5053982;28;20116;-73
2022/12/22 04:03:37;;;;;;;14.90;13.48;;;11.30;99.90;;;;;;5054883;28;20082;-73
2022/12/22 04:06:03;;;;;;;14.90;13.10;;;11.30;99.90;;;;;;5053828;28;20112;-73
2022/12/22 04:08:29;;;;;;;17.52;13.85;;;11.30;99.90;;;;;;5054320;28;20393;-72
2022/12/22 04:13:38;;;;;;;13.70;12.30;;;11.30;99.90;;;;;;5053766;28;20039;-73
2022/12/22 04:16:04;;;;;;;14.27;12.85;;;11.30;99.90;;;;;;5054127;28;20033;-72
2022/12/22 04:18:30;;;;;;;14.05;12.68;;;11.30;99.90;;;;;;5053046;28;20040;-72
2022/12/22 04:20:55;;;;;;;14.27;12.52;;;11.30;99.90;;;;;;5052891;28;20029;-73
2022/12/22 04:23:21;;;;;;;13.55;12.18;;;11.30;99.90;;;;;;5053815;28;20531;-72
2022/12/22 04:25:47;;;;;;;14.30;12.90;;;11.30;99.90;;;;;;5053768;28;20044;-73
2022/12/22 04:28:12;;;;;;;14.82;13.23;;;11.30;99.90;;;;;;5052593;28;20033;-72
2022/12/22 04:30:38;;;;;;;14.98;13.50;;;11.30;99.90;;;;;;5052839;28;20036;-72
2022/12/22 04:33:04;;;;;;;14.00;12.60;;;11.30;99.90;;;;;;5052965;28;20393;-72
2022/12/22 04:35:29;;;;;;;13.93;12.40;;;11.30;99.90;;;;;;5053763;28;20108;-72
2022/12/22 04:37:55;;;;;;;14.85;13.35;;;11.30;99.90;;;;;;5052613;28;20036;-72
2022/12/22 04:40:20;;;;;;;15.32;13.80;;;11.30;99.90;;;;;;5053513;28;20048;-72
2022/12/22 04:42:46;;;;;;;16.67;14.98;;;11.30;99.90;;;;;;5052265;28;20037;-72
2022/12/22 04:45:12;;;;;;;15.75;13.50;;;11.20;99.90;;;;;;5053903;28;20030;-72
2022/12/22 04:47:37;;;;;;;15.20;13.70;;;11.30;99.90;;;;;;5036551;28;20041;-72
2022/12/22 04:50:04;;;;;;;15.18;13.68;;;11.20;99.90;;;;;;5035980;28;20029;-72
2022/12/22 04:52:29;;;;;;;16.05;14.45;;;11.30;99.90;;;;;;5053677;28;20025;-72
2022/12/22 04:54:55;;;;;;;15.25;13.73;;;11.30;99.90;;;;;;5053731;28;20032;-72
2022/12/22 04:57:21;;;;;;;17.65;15.02;;;11.30;99.90;;;;;;5052490;28;20037;-72
2022/12/22 04:59:46;;;;;;;17.65;15.48;;;11.30;99.90;;;;;;5052388;28;20470;-73
2022/12/22 05:02:12;;;;;;;17.55;15.70;;;11.30;99.90;;;;;;5053672;28;20159;-73
2022/12/22 05:04:38;;;;;;;17.55;15.65;;;11.30;99.90;;;;;;5036631;28;20350;-73
2022/12/22 05:07:04;;;;;;;18.05;15.93;;;11.30;99.90;;;;;;5053134;28;20036;-72
2022/12/22 05:09:29;;;;;;;18.35;16.27;;;11.30;99.90;;;;;;5036064;28;20497;-72
2022/12/22 05:11:55;;;;;;;18.52;16.55;;;11.30;99.90;;;;;;5035906;28;20061;-73
2022/12/22 05:14:21;;;;;;;18.10;16.20;;;11.30;99.90;;;;;;5036220;28;20029;-73
2022/12/22 05:16:46;;;;;;;17.60;15.73;;;11.30;99.90;;;;;;5052186;28;20508;-72
2022/12/22 05:19:12;;;;;;;17.50;15.60;;;11.30;99.90;;;;;;5053171;28;20091;-73
2022/12/22 05:21:38;;;;;;;17.98;16.08;;;11.30;99.90;;;;;;5053436;28;20091;-72
2022/12/22 05:24:04;;;;;;;17.98;15.95;;;11.30;99.90;;;;;;5053266;28;20036;-73
2022/12/22 05:26:29;;;;;;;20.55;17.02;;;11.30;99.90;;;;;;5052418;28;20033;-72
2022/12/22 05:28:55;;;;;;;20.95;17.27;;;11.40;99.90;;;;;;5053331;28;20063;-72
2022/12/22 05:31:23;;;;;;;20.63;17.08;;;11.30;99.90;;;;;;5052015;28;20116;-73
2022/12/22 05:33:49;;;;;;;19.85;16.95;;;11.30;99.90;;;;;;5053173;28;20029;-72
2022/12/22 05:36:15;;;;;;;19.55;16.42;;;11.30;99.90;;;;;;5052102;28;20028;-72
2022/12/22 05:38:41;;;;;;;22.42;17.35;;;11.30;99.90;;;;;;5052255;28;20037;-73
2022/12/22 05:41:07;;;;;;;38.45;18.70;;;11.30;99.90;;;;;;5053512;28;20058;-73
2022/12/22 05:43:33;;;;;;;24.30;18.80;;;11.30;99.90;;;;;;5035840;28;20025;-72
2022/12/22 05:46:04;;;;;;;20.00;17.42;;;11.20;99.90;;;;;;5052890;28;20061;-72
2022/12/22 05:48:30;;;;;;;21.55;17.77;;;11.20;99.90;;;;;;5051977;28;20025;-74
2022/12/22 05:50:56;;;;;;;22.15;17.70;;;11.20;99.90;;;;;;5035080;28;20026;-73
2022/12/22 05:53:21;;;;;;;20.25;17.20;;;11.20;99.90;;;;;;5055225;28;20111;-73
2022/12/22 05:55:47;;;;;;;21.05;17.10;;;11.20;99.90;;;;;;5055638;28;20047;-72
2022/12/22 05:58:13;;;;;;;19.48;16.17;;;11.20;99.90;;;;;;5055700;28;20534;-73
2022/12/22 06:00:39;;;;;;;20.23;16.13;;;11.20;99.90;;;;;;5039130;28;20072;-72
2022/12/22 06:03:05;;;;;;;18.15;15.18;;;11.10;99.90;;;;;;5056840;28;20057;-73
2022/12/22 06:05:30;;;;;;;21.17;15.48;;;11.20;99.90;;;;;;5055420;28;20061;-73
2022/12/22 06:07:56;;;;;;;18.35;15.70;;;11.20;99.90;;;;;;5055416;28;20544;-72
2022/12/22 06:10:22;;;;;;;21.23;16.48;;;11.20;99.90;;;;;;5057105;28;20369;-73
2022/12/22 06:12:48;;;;;;;21.00;16.40;;;11.20;99.90;;;;;;5055231;28;20108;-72
2022/12/22 06:15:14;;;;;;;19.02;15.60;;;11.20;99.90;;;;;;5055667;28;20068;-71
2022/12/22 06:17:39;;;;;;;22.23;16.92;;;11.20;99.90;;;;;;5055635;28;20548;-72
2022/12/22 06:20:06;;;;;;;21.85;16.75;;;11.20;99.90;;;;;;5038349;28;20087;-72
2022/12/22 06:22:33;;;;;;;26.73;18.65;;;11.20;99.90;;;;;;5055171;28;20158;-72
2022/12/22 06:24:59;;;;;;;25.02;18.30;;;11.20;99.90;;;;;;5055369;28;20025;-72
2022/12/22 06:27:25;;;;;;;23.67;17.08;;;11.10;99.90;;;;;;5038573;28;20055;-72
2022/12/22 06:29:50;;;;;;;24.25;16.85;;;11.10;99.90;;;;;;5055057;28;20033;-72
2022/12/22 06:32:16;;;;;;;23.30;15.60;;;11.10;99.90;;;;;;5038460;28;20033;-72
2022/12/22 06:34:41;;;;;;;21.40;15.05;;;11.00;99.90;;;;;;5038863;28;20025;-73
2022/12/22 06:37:07;;;;;;;19.17;14.02;;;11.00;99.90;;;;;;5055681;28;20351;-73
2022/12/22 06:39:33;;;;;;;22.02;15.27;;;11.00;99.90;;;;;;5055875;28;20060;-71
2022/12/22 06:44:42;;;;;;;23.00;15.20;;;11.10;99.90;;;;;;5054820;28;20079;-73
2022/12/22 06:47:08;;;;;;;20.27;13.20;;;11.10;99.90;;;;;;5056194;28;20462;-72
2022/12/22 06:49:33;;;;;;;22.98;14.73;;;11.00;99.90;;;;;;5054511;28;20094;-72
2022/12/22 06:51:59;;;;;;;21.42;14.20;;;11.10;99.90;;;;;;5055760;28;20077;-72
2022/12/22 06:54:25;;;;;;;22.65;14.00;;;11.10;99.90;;;;;;5055606;28;20032;-72
2022/12/22 06:56:50;;;;;;;22.65;14.75;;;11.10;99.90;;;;;;5054746;28;20083;-73
2022/12/22 06:59:16;;;;;;;24.42;16.00;;;11.10;99.90;;;;;;5055720;28;20381;-72
2022/12/22 07:01:42;;;;;;;19.17;13.43;;;11.10;99.90;;;;;;5055696;28;20036;-72
2022/12/22 07:04:08;;;;;;;20.20;14.45;;;11.10;99.90;;;;;;5055356;28;20059;-73
2022/12/22 07:06:34;;;;;;;21.23;14.70;;;11.10;99.90;;;;;;5055546;28;20104;-72
2022/12/22 07:09:00;;;;;;;20.83;14.32;;;11.10;99.90;;;;;;5056089;28;20060;-72
2022/12/22 07:11:26;;;;;;;18.65;12.38;;;11.10;99.90;;;;;;5054280;28;20029;-73
2022/12/22 07:13:51;;;;;;;22.50;14.07;;;11.10;99.90;;;;;;5055246;28;20036;-76
2022/12/22 07:16:17;;;;;;;19.52;13.07;;;11.10;99.90;;;;;;5056062;28;20040;-75
2022/12/22 07:18:43;;;;;;;15.65;11.15;;;11.20;99.90;;;;;;5054555;28;20045;-78
2022/12/22 07:21:11;;;;;;;18.17;12.63;;;11.20;99.90;;;;;;5055438;28;20488;-78
2022/12/22 07:23:37;;;;;;;13.98;10.35;;;11.20;99.90;;;;;;5056587;28;20108;-81
2022/12/22 07:26:05;;;;;;;14.70;9.98;;;11.20;99.90;;;;;;5055196;28;20108;-80
2022/12/22 07:28:35;;;;;;;14.00;10.15;;;11.20;99.90;;;;;;5053798;28;20057;-79
2022/12/22 07:31:02;;;;;;;16.73;11.48;;;11.20;99.90;;;;;;5055154;28;20032;-79
2022/12/22 07:33:28;;;;;;;19.25;12.15;;;11.20;99.90;;;;;;5053530;28;20036;-78
2022/12/22 07:36:19;;;;;;;15.77;10.90;;;11.20;99.90;;;;;;5037811;28;20029;-80
2022/12/22 07:38:48;;;;;;;12.52;9.70;;;11.30;99.90;;;;;;5049668;28;20063;-79
2022/12/22 07:44:00;;;;;;;18.25;12.63;;;11.30;99.90;;;;;;5053541;28;20044;-80
2022/12/22 07:46:28;;;;;;;14.85;11.05;;;11.30;99.90;;;;;;5053252;28;20029;-79
2022/12/22 07:51:40;;;;;;;15.23;12.02;;;11.30;99.90;;;;;;5054228;28;20156;-78
2022/12/22 07:54:07;;;;;;;17.95;13.50;;;11.20;99.90;;;;;;5054783;28;20543;-80
2022/12/22 07:56:33;;;;;;;19.42;13.13;;;11.10;99.90;;;;;;5036962;28;20496;-80
2022/12/22 07:58:59;;;;;;;23.55;15.10;;;11.10;99.90;;;;;;5053312;28;20112;-80
2022/12/22 08:01:25;;;;;;;21.38;14.82;;;11.10;99.90;;;;;;5037032;28;20370;-75
2022/12/22 08:03:51;;;;;;;23.63;16.13;;;11.10;99.90;;;;;;5054625;28;20143;-76
2022/12/22 08:06:17;;;;;;;25.05;15.38;;;11.00;99.90;;;;;;5053976;28;20051;-77
2022/12/22 08:08:42;;;;;;;27.85;12.55;;;11.00;99.90;;;;;;5054040;28;20050;-78
2022/12/22 08:11:08;;;;;;;22.77;15.32;;;11.00;99.90;;;;;;5053559;28;20106;-79
2022/12/22 08:13:34;;;;;;;26.15;15.90;;;11.00;99.90;;;;;;5053378;28;20128;-80
2022/12/22 08:16:04;;;;;;;27.33;16.67;;;11.00;99.90;;;;;;5052196;28;20033;-78
2022/12/22 08:18:30;;;;;;;28.23;17.13;;;11.00;99.90;;;;;;5036200;28;20037;-77
2022/12/22 08:20:55;;;;;;;31.42;18.42;;;11.00;99.90;;;;;;5052997;28;20390;-79
2022/12/22 08:23:21;;;;;;;34.95;19.13;;;11.00;99.90;;;;;;5036309;28;20033;-79
2022/12/22 08:25:52;;;;;;;26.58;17.25;;;11.00;99.90;;;;;;5053582;28;20487;-79
2022/12/22 08:28:18;;;;;;;26.95;17.90;;;11.10;99.90;;;;;;5053190;28;20029;-78
2022/12/22 08:30:44;;;;;;;32.17;19.30;;;11.10;99.90;;;;;;5036244;28;20394;-78
2022/12/22 08:33:10;;;;;;;30.90;17.02;;;11.20;99.90;;;;;;5036263;28;20106;-78
2022/12/22 08:35:36;;;;;;;29.52;18.42;;;11.20;99.90;;;;;;5019840;28;20025;-77
2022/12/22 08:38:02;;;;;;;32.35;18.52;;;11.20;99.90;;;;;;5052573;28;20041;-78
2022/12/22 08:40:31;;;;;;;26.13;17.85;;;11.30;99.90;;;;;;5037000;28;20036;-79
2022/12/22 08:43:01;;;;;;;32.05;19.70;;;11.30;99.90;;;;;;5054090;28;20033;-80
2022/12/22 08:45:27;;;;;;;30.42;17.75;;;11.30;99.90;;;;;;5055751;28;20017;-77
2022/12/22 08:47:53;;;;;;;32.30;18.83;;;11.30;99.90;;;;;;5036862;28;20443;-75
2022/12/22 08:50:18;;;;;;;29.63;18.17;;;11.30;99.90;;;;;;5036217;28;20064;-79
2022/12/22 08:52:44;;;;;;;31.50;19.90;;;11.30;99.90;;;;;;5036028;28;20041;-78
2022/12/22 08:55:10;;;;;;;37.30;22.00;;;11.40;99.90;;;;;;5019576;28;20029;-79
2022/12/22 08:57:36;;;;;;;34.22;20.52;;;11.40;99.90;;;;;;5053046;28;20060;-77
2022/12/22 09:00:05;;;;;;;36.10;20.85;;;11.40;99.90;;;;;;5052394;28;20115;-78
2022/12/22 09:02:30;;;;;;;36.97;20.90;;;11.40;99.90;;;;;;5052320;28;20116;-77
2022/12/22 09:04:56;;;;;;;34.33;20.90;;;11.40;99.90;;;;;;5052048;28;20063;-78
2022/12/22 09:07:22;;;;;;;35.90;20.20;;;11.30;99.90;;;;;;5035379;28;20033;-78
2022/12/22 09:09:47;;;;;;;32.78;19.95;;;11.30;99.90;;;;;;5051790;28;20053;-78
2022/12/22 09:12:13;;;;;;;27.63;17.60;;;11.30;99.90;;;;;;5052179;28;20040;-78
2022/12/22 09:14:39;;;;;;;36.72;19.10;;;11.20;99.90;;;;;;5053413;28;20029;-78
2022/12/22 09:17:04;;;;;;;32.53;18.77;;;11.30;99.90;;;;;;5035611;28;20124;-78
2022/12/22 09:19:30;;;;;;;35.28;19.73;;;11.30;99.90;;;;;;5035868;28;20025;-78
2022/12/22 09:21:56;;;;;;;35.47;19.90;;;11.20;99.90;;;;;;5052136;28;20036;-77
2022/12/22 09:24:22;;;;;;;31.88;18.48;;;11.20;99.90;;;;;;5051893;28;20025;-78
2022/12/22 09:26:48;;;;;;;34.10;18.38;;;11.10;99.90;;;;;;5054501;28;20044;-81
2022/12/22 09:29:14;;;;;;;36.53;18.00;;;11.10;99.90;;;;;;5056294;28;20509;-80
2022/12/22 09:31:40;;;;;;;32.17;17.45;;;11.10;99.90;;;;;;5040240;28;20129;-79
2022/12/22 09:34:07;;;;;;;35.10;19.02;;;11.10;99.90;;;;;;5039521;28;20064;-80
2022/12/22 09:36:33;;;;;;;34.53;18.35;;;11.10;99.90;;;;;;5056063;28;20028;-81
2022/12/22 09:39:06;;;;;;;35.05;17.70;;;11.10;99.90;;;;;;5057280;28;20104;-79
2022/12/22 09:41:42;;;;;;;32.30;17.33;;;11.20;99.90;;;;;;5040954;28;20048;-81
2022/12/22 09:44:36;;;;;;;31.50;17.10;;;11.20;99.90;;;;;;5056091;28;20060;-80
2022/12/22 09:47:14;;;;;;;27.88;16.33;;;11.20;99.90;;;;;;5047148;28;20037;-79
2022/12/22 09:49:40;;;;;;;32.30;16.90;;;11.30;99.90;;;;;;5057093;28;20353;-78
2022/12/22 09:52:17;;;;;;;34.78;16.50;;;11.30;99.90;;;;;;5057821;28;20125;-77
2022/12/22 09:54:43;;;;;;;31.00;17.10;;;11.30;99.90;;;;;;5040565;28;20434;-78
2022/12/22 09:57:11;;;;;;;26.73;15.40;;;11.30;99.90;;;;;;5056658;28;20120;-73
2022/12/22 09:59:37;;;;;;;33.88;17.00;;;11.20;99.90;;;;;;5039342;28;20029;-78
2022/12/22 10:02:32;;;;;;;31.55;17.52;;;11.20;99.90;;;;;;5055239;28;20434;-77
2022/12/22 10:05:37;;;;;;;36.30;18.58;;;11.20;99.90;;;;;;5055102;28;20392;-79
2022/12/22 10:08:11;;;;;;;37.53;17.13;;;11.20;99.90;;;;;;5056345;28;20153;-77
2022/12/22 10:10:37;;;;;;;35.78;17.95;;;11.20;99.90;;;;;;5056402;28;20025;-78
2022/12/22 10:13:16;;;;;;;34.92;16.10;;;11.20;99.90;;;;;;5055197;28;20025;-78
2022/12/22 10:15:42;;;;;;;35.58;17.05;;;11.10;99.90;;;;;;5056333;28;20074;-79
2022/12/22 10:18:14;;;;;;;30.25;15.35;;;11.10;99.90;;;;;;5038908;28;20354;-78
2022/12/22 10:20:42;;;;;;;31.30;14.82;;;11.00;99.90;;;;;;5055044;28;20119;-78
2022/12/22 10:23:19;;;;;;;33.85;15.88;;;10.90;99.90;;;;;;5054875;28;20078;-78
2022/12/22 10:25:57;;;;;;;30.80;14.27;;;10.80;99.90;;;;;;5055177;28;20033;-78
2022/12/22 10:28:27;;;;;;;26.65;13.55;;;10.80;99.90;;;;;;5056638;28;20033;-76
2022/12/22 10:31:25;;;;;;;27.42;12.82;;;10.80;99.90;;;;;;5056926;28;20021;-77
2022/12/22 10:33:54;;;;;;;25.17;11.85;;;10.80;99.90;;;;;;5001856;28;20057;-79
2022/12/22 10:36:27;;;;;;;29.42;12.60;;;10.80;99.90;;;;;;5055101;28;20025;-76
2022/12/22 10:39:07;;;;;;;23.15;10.85;;;10.80;99.90;;;;;;5055705;28;20061;-77
2022/12/22 10:41:44;;;;;;;29.45;12.25;;;10.70;99.90;;;;;;5055578;28;20025;-78
2022/12/22 10:44:23;;;;;;;28.63;11.50;;;10.70;99.90;;;;;;5055325;28;20426;-77
2022/12/22 10:46:52;;;;;;;24.23;11.57;;;10.60;99.90;;;;;;5055409;28;20053;-77
2022/12/22 10:49:26;;;;;;;20.83;10.30;;;10.50;99.90;;;;;;5055082;28;20457;-77
2022/12/22 10:51:55;;;;;;;26.80;11.57;;;10.40;99.90;;;;;;5055349;28;20029;-77
2022/12/22 10:54:29;;;;;;;23.38;11.63;;;10.40;99.90;;;;;;5054484;28;20078;-78
2022/12/22 10:57:18;;;;;;;18.35;9.88;;;10.40;99.90;;;;;;5055987;28;20037;-77
2022/12/22 11:00:01;;;;;;;22.20;11.27;;;10.30;99.90;;;;;;5044096;28;20083;-77
2022/12/22 11:02:29;;;;;;;;;;;10.20;99.90;;;;;;5054967;28;20025;-77
2022/12/22 11:05:02;;;;;;;24.95;12.20;;;10.30;99.90;;;;;;5056031;28;19928;-78
2022/12/22 11:07:31;;;;;;;22.10;9.70;;;10.20;99.90;;;;;;5055617;28;20052;-75
2022/12/22 11:09:57;;;;;;;18.27;9.27;;;10.20;99.90;;;;;;5056056;28;20056;-77
2022/12/22 11:12:39;;;;;;;18.20;10.10;;;10.10;99.90;;;;;;5038653;28;20025;-77
2022/12/22 11:15:20;;;;;;;17.92;9.60;;;10.10;99.90;;;;;;5054404;28;20079;-77
2022/12/22 11:18:16;;;;;;;20.00;11.35;;;10.20;99.90;;;;;;5054140;28;20033;-77
2022/12/22 11:21:14;;;;;;;18.27;9.65;;;10.10;99.90;;;;;;5053878;28;20025;-77
2022/12/22 11:24:13;;;;;;;20.05;11.48;;;10.10;99.90;;;;;;5055469;28;20036;-79
2022/12/22 11:26:41;;;;;;;23.38;10.73;;;10.20;99.90;;;;;;5057042;28;20025;-76
2022/12/22 11:29:45;;;;;;;22.40;10.95;;;10.20;99.90;;;;;;5055121;28;20381;-76
2022/12/22 11:32:48;;;;;;;21.92;11.40;;;10.30;99.90;;;;;;5055440;28;20043;-76
2022/12/22 11:35:43;;;;;;;26.48;12.07;;;10.30;99.90;;;;;;5055523;28;20458;-76
2022/12/22 11:38:21;;;;;;;23.25;12.75;;;10.40;99.90;;;;;;5054962;28;20037;-76
2022/12/22 11:41:19;;;;;;;28.98;14.40;;;10.40;99.90;;;;;;5053456;28;20039;-75
2022/12/22 11:43:56;;;;;;;29.80;15.85;;;10.40;99.90;;;;;;5054188;28;20101;-77
2022/12/22 11:46:45;;;;;;;33.30;16.08;;;10.50;99.90;;;;;;5054089;28;20028;-77
2022/12/22 11:49:14;;;;;;;29.90;16.20;;;10.50;99.90;;;;;;5053808;28;20029;-76
2022/12/22 11:52:35;;;;;;;33.00;18.08;;;10.50;99.90;;;;;;5053891;28;20519;-75
2022/12/22 11:55:04;;;;;;;37.85;18.42;;;10.60;99.90;;;;;;4963444;28;20206;-73
2022/12/22 11:57:48;;;;;;;37.72;19.85;;;10.60;99.90;;;;;;5048128;28;20041;-73
2022/12/22 12:00:17;;;;;;;36.40;19.77;;;10.60;99.90;;;;;;5054319;28;20195;-73
2022/12/22 12:03:09;;;;;;;37.67;20.85;;;10.60;99.90;;;;;;5053317;28;20048;-73
2022/12/22 12:06:07;;;;;;;31.45;18.20;;;10.60;99.90;;;;;;5053475;28;20119;-73
2022/12/22 12:08:58;;;;;;;34.75;21.00;;;10.60;99.90;;;;;;5006945;28;20059;-72
2022/12/22 12:11:48;;;;;;;32.70;18.60;;;10.60;99.90;;;;;;5053467;28;20417;-73
2022/12/22 12:14:16;;;;;;;35.17;19.20;;;10.60;99.90;;;;;;5054364;28;20029;-73
2022/12/22 12:17:01;;;;;;;31.05;18.38;;;10.70;99.90;;;;;;5053666;28;20100;-73
2022/12/22 12:19:45;;;;;;;35.25;17.85;;;10.80;99.90;;;;;;5052713;28;20029;-72
2022/12/22 12:22:26;;;;;;;35.72;19.08;;;10.90;99.90;;;;;;5054262;28;20021;-73
2022/12/22 12:25:30;;;;;;;31.00;18.42;;;10.90;99.90;;;;;;5054058;28;20025;-73
2022/12/22 12:28:34;;;;;;;31.90;18.00;;;11.00;99.90;;;;;;5023410;28;20037;-74
2022/12/22 12:30:59;;;;;;;;;;;11.00;99.90;;;;;;5050451;28;20045;-73
2022/12/22 12:33:25;;;;;;;34.75;18.83;;;11.00;99.90;;;;;;5052789;28;20379;-74
2022/12/22 12:36:06;;;;;;;31.33;17.40;;;11.00;99.90;;;;;;5054132;28;20029;-73
2022/12/22 12:38:49;;;;;;;26.27;15.68;;;10.90;99.90;;;;;;5054031;28;20036;-74
2022/12/22 12:41:31;;;;;;;23.48;13.38;;;10.90;99.90;;;;;;5053781;28;20461;-74
2022/12/22 12:43:57;;;;;;;20.08;11.52;;;11.00;99.90;;;;;;5053062;28;20033;-74
2022/12/22 12:46:43;;;;;;;22.50;11.80;;;10.90;99.90;;;;;;5052117;28;20366;-74
2022/12/22 12:49:37;;;;;;;25.05;11.65;;;10.80;99.90;;;;;;5053575;28;20035;-76
2022/12/22 12:52:06;;;;;;;;;;;10.80;99.90;;;;;;5052902;28;20017;-76
2022/12/22 12:54:34;;;;;;;21.02;12.20;;;10.80;99.90;;;;;;5052030;28;19904;-76
2022/12/22 12:57:06;;;;;;;22.40;12.27;;;10.80;99.90;;;;;;5051732;28;20039;-75
2022/12/22 12:59:40;;;;;;;22.88;12.60;;;10.70;99.90;;;;;;5052853;28;20021;-75
2022/12/22 13:02:26;;;;;;;20.17;11.10;;;10.60;99.90;;;;;;5051721;28;20025;-76
2022/12/22 13:05:26;;;;;;;21.45;11.20;;;10.60;99.90;;;;;;5038576;28;20098;-77
2022/12/22 13:08:15;;;;;;;19.88;11.40;;;10.60;99.90;;;;;;5051986;28;20123;-76
2022/12/22 13:10:43;;;;;;;22.33;10.50;;;10.60;99.90;;;;;;5053209;28;20033;-76
2022/12/22 13:13:21;;;;;;;19.35;10.05;;;10.50;99.90;;;;;;5053190;28;20029;-77
2022/12/22 13:16:07;;;;;;;20.63;9.50;;;10.50;99.90;;;;;;5052703;28;20071;-77
2022/12/22 13:18:33;;;;;;;21.58;10.43;;;10.50;99.90;;;;;;5037896;28;20041;-77
2022/12/22 13:21:00;;;;;;;22.60;11.18;;;10.50;99.90;;;;;;5052012;28;20029;-78
2022/12/22 13:23:34;;;;;;;20.70;11.23;;;10.50;99.90;;;;;;5053423;28;20025;-79
2022/12/22 13:26:07;;;;;;;19.48;10.15;;;10.40;99.90;;;;;;5052642;28;20128;-77
2022/12/22 13:28:36;;;;;;;20.92;11.35;;;10.40;99.90;;;;;;5052105;28;20033;-77
2022/12/22 13:31:32;;;;;;;19.42;11.02;;;10.40;99.90;;;;;;5051984;28;20076;-77
2022/12/22 13:34:31;;;;;;;20.73;13.05;;;10.40;99.90;;;;;;5052042;28;20140;-77
2022/12/22 13:37:23;;;;;;;23.60;13.43;;;10.40;99.90;;;;;;5054609;28;20060;-75
2022/12/22 13:40:26;;;;;;;23.52;14.57;;;10.40;99.90;;;;;;5054680;28;20119;-76
2022/12/22 13:42:56;;;;;;;25.65;14.88;;;10.40;99.90;;;;;;4973844;28;20023;-75
2022/12/22 13:45:54;;;;;;;27.98;16.30;;;10.40;99.90;;;;;;5037929;28;20454;-77
2022/12/22 13:48:31;;;;;;;25.30;15.43;;;10.40;99.90;;;;;;5047085;28;20402;-76
2022/12/22 13:51:00;;;;;;;26.77;16.67;;;10.30;99.90;;;;;;5052308;28;20025;-76
2022/12/22 13:53:34;;;;;;;29.50;17.00;;;10.40;99.90;;;;;;5051548;28;20047;-75
2022/12/22 13:56:00;;;;;;;28.80;17.30;;;10.40;99.90;;;;;;5051780;28;20051;-73
2022/12/22 13:58:29;;;;;;;31.25;17.67;;;10.40;99.90;;;;;;5052938;28;20052;-75
2022/12/22 14:01:10;;;;;;;28.38;17.33;;;10.40;99.90;;;;;;5052062;28;20365;-74
2022/12/22 14:03:57;;;;;;;28.25;17.48;;;10.50;99.90;;;;;;5051651;28;20036;-74
2022/12/22 14:06:31;;;;;;;31.15;19.13;;;10.50;99.90;;;;;;5053078;28;20021;-75
2022/12/22 14:09:23;;;;;;;29.70;19.35;;;10.60;99.90;;;;;;5051707;28;20183;-74
2022/12/22 14:11:56;;;;;;;29.30;18.90;;;10.60;99.90;;;;;;5052629;28;20037;-75
2022/12/22 14:14:28;;;;;;;29.98;19.42;;;10.60;99.90;;;;;;5054639;28;20029;-77
2022/12/22 14:16:57;;;;;;;28.00;19.35;;;10.70;99.90;;;;;;5056572;28;20098;-76
2022/12/22 14:19:24;;;;;;;32.95;18.52;;;10.70;99.90;;;;;;5054900;28;20025;-76
2022/12/22 14:22:02;;;;;;;31.65;20.35;;;10.70;99.90;;;;;;5056347;28;20024;-77
2022/12/22 14:24:32;;;;;;;31.13;19.08;;;10.60;99.90;;;;;;5057474;28;20035;-77
2022/12/22 14:26:58;;;;;;;31.23;22.27;;;10.70;99.90;;;;;;5054667;28;20033;-75
2022/12/22 14:29:27;;;;;;;31.00;22.27;;;10.70;99.90;;;;;;5054675;28;20349;-75
2022/12/22 14:31:55;;;;;;;34.20;23.00;;;10.70;99.90;;;;;;5056322;28;20079;-73
2022/12/22 14:34:29;;;;;;;36.05;23.42;;;10.70;99.90;;;;;;5055284;28;20064;-73
2022/12/22 14:36:56;;;;;;;32.28;22.50;;;10.80;99.90;;;;;;5054930;28;20033;-72
2022/12/22 14:39:24;;;;;;;38.58;24.50;;;10.70;99.90;;;;;;5056094;28;20029;-73
2022/12/22 14:41:56;;;;;;;39.00;24.13;;;10.70;99.90;;;;;;5054517;28;20071;-73
2022/12/22 14:44:36;;;;;;;35.93;24.03;;;10.80;99.90;;;;;;5054732;28;20111;-73
2022/12/22 14:47:19;;;;;;;33.50;23.20;;;10.70;99.90;;;;;;5055211;28;20290;-76
2022/12/22 14:50:03;;;;;;;30.42;22.95;;;10.70;99.90;;;;;;5054603;28;20035;-74
2022/12/22 14:52:34;;;;;;;35.38;22.85;;;10.80;99.90;;;;;;5054479;28;20033;-74
2022/12/22 14:55:01;;;;;;;32.55;22.33;;;10.80;99.90;;;;;;5054380;28;20032;-75
2022/12/22 14:57:35;;;;;;;29.08;21.27;;;10.90;99.90;;;;;;5055164;28;20042;-73
2022/12/22 15:00:06;;;;;;;35.15;23.08;;;10.90;99.90;;;;;;5056290;28;20021;-73
2022/12/22 15:02:36;;;;;;;35.10;23.33;;;11.00;99.90;;;;;;5055611;28;20032;-73
2022/12/22 15:05:24;;;;;;;30.73;21.33;;;11.00;99.90;;;;;;5053934;28;20029;-74
2022/12/22 15:07:52;;;;;;;33.67;23.55;;;11.00;99.90;;;;;;5055702;28;20025;-73
2022/12/22 15:10:18;;;;;;;31.80;22.75;;;11.10;99.90;;;;;;5055418;28;20053;-74
2022/12/22 15:12:46;;;;;;;35.13;23.55;;;11.10;99.90;;;;;;5053983;28;20033;-74
2022/12/22 15:15:20;;;;;;;29.60;20.95;;;11.10;99.90;;;;;;5055179;28;20029;-74
2022/12/22 15:17:50;;;;;;;36.47;23.85;;;11.10;99.90;;;;;;5053525;28;20036;-74
2022/12/22 15:20:25;;;;;;;35.08;22.83;;;11.20;99.90;;;;;;5037467;28;20140;-73
2022/12/22 15:22:51;;;;;;;33.95;24.77;;;11.20;99.90;;;;;;5053253;28;20083;-75
2022/12/22 15:25:21;;;;;;;36.03;24.70;;;11.20;99.90;;;;;;5053337;28;20100;-76
2022/12/22 15:27:47;;;;;;;33.30;23.42;;;11.20;99.90;;;;;;5055093;28;20033;-76
2022/12/22 15:30:17;;;;;;;33.88;24.35;;;11.20;99.90;;;;;;5054106;28;20037;-76
2022/12/22 15:32:43;;;;;;;30.58;23.70;;;11.20;99.90;;;;;;5055820;28;20021;-77
2022/12/22 15:35:22;;;;;;;33.40;23.70;;;11.20;99.90;;;;;;5056029;28;20029;-74
2022/12/22 15:37:48;;;;;;;34.10;23.95;;;11.20;99.90;;;;;;5054736;28;20033;-75
2022/12/22 15:40:24;;;;;;;30.88;23.52;;;11.20;99.90;;;;;;5054216;28;20055;-77
2022/12/22 15:42:50;;;;;;;30.60;22.52;;;11.10;99.90;;;;;;5053571;28;20083;-76
2022/12/22 15:45:18;;;;;;;33.17;22.85;;;11.10;99.90;;;;;;5037039;28;20504;-74
2022/12/22 15:47:48;;;;;;;31.45;21.70;;;11.20;99.90;;;;;;5036925;28;20041;-78
2022/12/22 15:50:18;;;;;;;34.50;22.75;;;11.20;99.90;;;;;;5054008;28;20025;-75
2022/12/22 15:52:49;;;;;;;31.90;21.88;;;11.20;99.90;;;;;;5053925;28;20025;-78
2022/12/22 15:55:16;;;;;;;30.30;21.92;;;11.20;99.90;;;;;;5053818;28;20488;-77
2022/12/22 15:57:43;;;;;;;30.92;22.08;;;11.20;99.90;;;;;;5054624;28;20043;-80
2022/12/22 16:00:14;;;;;;;27.73;20.08;;;11.20;99.90;;;;;;5054496;28;20090;-79
2022/12/22 16:02:39;;;;;;;31.13;22.20;;;11.20;99.90;;;;;;5054902;28;20055;-74
2022/12/22 16:05:06;;;;;;;29.27;22.10;;;11.30;99.90;;;;;;5054596;28;20112;-75
2022/12/22 16:07:32;;;;;;;32.78;22.20;;;11.30;99.90;;;;;;5054343;28;20033;-75
2022/12/22 16:09:59;;;;;;;31.40;21.77;;;11.30;99.90;;;;;;5036810;28;20059;-75
2022/12/22 16:12:25;;;;;;;28.48;20.83;;;11.30;99.90;;;;;;5054120;28;20546;-76
2022/12/22 16:14:54;;;;;;;27.25;21.08;;;11.30;99.90;;;;;;5020068;28;20025;-76
2022/12/22 16:17:24;;;;;;;28.50;20.15;;;11.20;99.90;;;;;;5052782;28;20364;-76
2022/12/22 16:19:50;;;;;;;27.30;19.17;;;11.20;99.90;;;;;;5054360;28;20025;-75
2022/12/22 16:22:19;;;;;;;27.70;20.60;;;11.20;99.90;;;;;;5053351;28;20052;-76
2022/12/22 16:24:47;;;;;;;28.73;20.02;;;11.10;99.90;;;;;;5053203;28;20458;-75
2022/12/22 16:27:13;;;;;;;29.88;19.70;;;11.20;99.90;;;;;;5053830;28;20029;-78
2022/12/22 16:29:45;;;;;;;29.48;20.08;;;11.10;99.90;;;;;;5054282;28;20127;-78
2022/12/22 16:32:24;;;;;;;27.35;19.15;;;11.10;99.90;;;;;;5053152;28;20068;-75